Time;durP1;ratioP1;P1;durP2;ratioP2;P2;SDS_P1;SDS_P2;PMS_P1;PMS_P2;Temp;Humidity;BMP_temperature;BMP_pressure;BME280_temperature;BME280_humidity;BME280_pressure;Samples;Min_cycle;Max_cycle;Signal;HPM_P1;HPM_P2
2021/03/06 00:01:43;;;;;;;13.32;6.97;;;6.10;99.90;;;;;;5033879;28;20702;-83
2021/03/06 00:04:09;;;;;;;9.45;6.10;;;6.10;99.90;;;;;;5031678;28;20678;-84
2021/03/06 00:06:37;;;;;;;8.75;6.38;;;6.20;99.90;;;;;;5032259;28;20223;-83
2021/03/06 00:09:03;;;;;;;7.70;5.45;;;6.10;99.90;;;;;;5030205;28;20224;-84
2021/03/06 00:11:30;;;;;;;6.00;5.15;;;6.10;99.90;;;;;;5028295;28;20215;-84
2021/03/06 00:13:56;;;;;;;8.85;5.45;;;6.10;99.90;;;;;;5033697;28;20223;-84
2021/03/06 00:16:22;;;;;;;10.15;5.85;;;6.10;99.90;;;;;;5026877;28;20212;-83
2021/03/06 00:18:48;;;;;;;9.43;6.10;;;6.10;99.90;;;;;;5033286;28;20291;-83
2021/03/06 00:21:14;;;;;;;7.15;5.30;;;6.10;99.90;;;;;;5031517;28;20211;-84
2021/03/06 00:23:42;;;;;;;14.80;5.93;;;6.10;99.90;;;;;;5034181;28;20215;-84
2021/03/06 00:26:08;;;;;;;6.38;4.95;;;6.00;99.90;;;;;;5033919;28;20219;-84
2021/03/06 00:28:34;;;;;;;6.22;5.25;;;6.00;99.90;;;;;;5033324;28;20191;-82
2021/03/06 00:31:00;;;;;;;7.18;5.32;;;6.10;99.90;;;;;;5019973;28;20204;-82
2021/03/06 00:33:26;;;;;;;7.53;5.05;;;6.10;99.90;;;;;;5016902;28;20939;-83
2021/03/06 00:35:52;;;;;;;6.70;4.45;;;6.00;99.90;;;;;;5029830;28;20222;-82
2021/03/06 00:38:19;;;;;;;8.52;5.80;;;6.00;99.90;;;;;;5018746;28;20196;-82
2021/03/06 00:40:46;;;;;;;8.02;5.38;;;5.90;99.90;;;;;;5032825;28;20265;-83
2021/03/06 00:43:12;;;;;;;5.43;4.55;;;6.00;99.90;;;;;;5030915;28;20299;-82
2021/03/06 00:45:38;;;;;;;7.40;4.60;;;6.00;99.90;;;;;;5025571;28;20220;-82
2021/03/06 00:48:05;;;;;;;7.80;4.93;;;6.00;99.90;;;;;;5029581;28;20207;-83
2021/03/06 00:50:34;;;;;;;6.15;4.63;;;6.00;99.90;;;;;;5025180;28;20234;-83
2021/03/06 00:53:00;;;;;;;6.53;5.25;;;5.90;99.90;;;;;;5018058;28;20217;-83
2021/03/06 00:55:26;;;;;;;5.05;4.15;;;6.00;99.90;;;;;;5017656;28;20219;-83
2021/03/06 00:57:53;;;;;;;10.93;5.03;;;5.90;99.90;;;;;;5032892;28;20220;-83
2021/03/06 01:00:20;;;;;;;5.30;4.78;;;5.80;99.90;;;;;;5017438;28;20258;-83
2021/03/06 01:02:46;;;;;;;6.50;3.90;;;5.90;99.90;;;;;;5032325;28;20297;-83
2021/03/06 01:05:13;;;;;;;4.70;3.88;;;5.90;99.90;;;;;;5031129;28;20219;-83
2021/03/06 01:07:40;;;;;;;5.63;4.45;;;5.80;99.90;;;;;;5032257;28;20291;-83
2021/03/06 01:10:09;;;;;;;6.57;4.22;;;5.90;99.90;;;;;;5027214;28;20215;-82
2021/03/06 01:12:35;;;;;;;8.80;4.53;;;5.90;99.90;;;;;;5031467;28;20227;-82
2021/03/06 01:15:04;;;;;;;6.22;3.97;;;5.80;99.90;;;;;;5029805;28;20646;-81
2021/03/06 01:17:30;;;;;;;4.72;3.78;;;5.80;99.90;;;;;;5024956;28;20203;-82
2021/03/06 01:19:56;;;;;;;5.15;4.55;;;5.80;99.90;;;;;;5011859;28;20223;-83
2021/03/06 01:22:22;;;;;;;8.27;3.92;;;5.80;99.90;;;;;;5020535;28;20215;-82
2021/03/06 01:24:49;;;;;;;6.35;4.78;;;5.80;99.90;;;;;;5025992;28;20814;-85
2021/03/06 01:27:15;;;;;;;3.92;3.30;;;5.90;99.90;;;;;;5027068;28;20200;-87
2021/03/06 01:29:41;;;;;;;4.80;4.28;;;5.70;99.90;;;;;;5055253;28;20282;-86
2021/03/06 01:32:08;;;;;;;4.45;4.03;;;5.80;99.90;;;;;;5034110;28;20212;-87
2021/03/06 01:34:35;;;;;;;5.60;4.30;;;5.70;99.90;;;;;;5016453;28;20219;-87
2021/03/06 01:37:01;;;;;;;6.13;4.13;;;6.00;99.90;;;;;;5031258;28;20196;-88
2021/03/06 01:39:28;;;;;;;4.95;4.07;;;5.70;99.90;;;;;;5009944;28;20210;-87
2021/03/06 01:41:54;;;;;;;4.40;3.50;;;5.70;99.90;;;;;;5035204;28;20330;-88
2021/03/06 01:44:20;;;;;;;4.60;4.00;;;5.70;99.90;;;;;;5019025;28;20725;-89
2021/03/06 01:46:47;;;;;;;5.45;4.43;;;5.70;99.90;;;;;;5023975;28;20199;-87
2021/03/06 01:49:14;;;;;;;5.30;3.80;;;5.70;99.90;;;;;;5017857;28;20219;-87
2021/03/06 01:51:41;;;;;;;4.65;3.58;;;5.70;99.90;;;;;;5033095;28;20706;-87
2021/03/06 01:54:08;;;;;;;7.30;4.07;;;5.70;99.90;;;;;;5034439;28;20242;-86
2021/03/06 01:56:35;;;;;;;6.55;3.50;;;5.70;99.90;;;;;;5021220;28;20224;-85
2021/03/06 01:59:01;;;;;;;6.55;3.95;;;5.90;99.90;;;;;;5029415;28;20701;-86
2021/03/06 02:01:28;;;;;;;8.27;3.95;;;5.70;99.90;;;;;;5014916;28;20219;-86
2021/03/06 02:03:54;;;;;;;4.07;3.28;;;5.60;99.90;;;;;;5021854;28;20199;-86
2021/03/06 02:06:21;;;;;;;8.82;3.67;;;5.60;99.90;;;;;;5019731;28;20231;-86
2021/03/06 02:08:47;;;;;;;5.78;4.13;;;5.60;99.90;;;;;;5015525;28;20821;-86
2021/03/06 02:11:25;;;;;;;6.78;4.55;;;5.70;99.90;;;;;;5018387;28;20207;-86
2021/03/06 02:14:00;;;;;;;5.97;3.53;;;5.60;99.90;;;;;;5032996;28;20211;-85
2021/03/06 02:16:35;;;;;;;6.20;3.47;;;5.60;99.90;;;;;;5019886;28;20199;-86
2021/03/06 02:19:10;;;;;;;5.45;4.00;;;5.60;99.90;;;;;;5030012;28;20274;-86
2021/03/06 02:21:50;;;;;;;4.82;3.90;;;5.50;99.90;;;;;;5032341;28;20346;-86
2021/03/06 02:24:35;;;;;;;10.73;4.75;;;5.50;99.90;;;;;;5029819;28;20281;-85
2021/03/06 02:27:13;;;;;;;9.18;3.78;;;5.50;99.90;;;;;;5033428;28;20187;-85
2021/03/06 02:29:47;;;;;;;4.53;3.42;;;5.50;99.90;;;;;;5026541;28;20211;-85
2021/03/06 02:32:18;;;;;;;5.70;3.72;;;5.50;99.90;;;;;;5014340;28;20224;-86
2021/03/06 02:34:50;;;;;;;5.78;4.30;;;5.50;99.90;;;;;;5029524;28;20210;-85
2021/03/06 02:37:20;;;;;;;6.55;4.00;;;5.50;99.90;;;;;;5032266;28;20674;-85
2021/03/06 02:39:51;;;;;;;6.35;3.88;;;5.50;99.90;;;;;;5033661;28;20621;-85
2021/03/06 02:42:21;;;;;;;4.50;3.40;;;5.50;99.90;;;;;;5032964;28;20291;-85
2021/03/06 02:44:50;;;;;;;5.57;3.75;;;5.50;99.90;;;;;;5031154;28;20704;-86
2021/03/06 02:47:17;;;;;;;5.00;2.83;;;5.50;99.90;;;;;;5043614;28;20265;-86
2021/03/06 02:49:51;;;;;;;3.78;2.70;;;5.50;99.90;;;;;;5032929;28;20710;-87
2021/03/06 02:52:18;;;;;;;3.15;2.63;;;5.40;99.90;;;;;;5020785;28;20216;-86
2021/03/06 02:54:44;;;;;;;5.88;3.35;;;5.50;99.90;;;;;;5038748;28;20310;-86
2021/03/06 02:57:18;;;;;;;4.97;3.53;;;5.40;99.90;;;;;;5033799;28;20215;-86
2021/03/06 03:00:23;;;;;;;5.30;3.13;;;5.40;99.90;;;;;;5007422;28;20662;-87
2021/03/06 03:02:59;;;;;;;3.85;2.80;;;5.50;99.90;;;;;;5007758;28;20223;-86
2021/03/06 03:05:32;;;;;;;4.10;2.65;;;5.40;99.90;;;;;;5018725;28;20227;-87
2021/03/06 03:08:03;;;;;;;5.03;3.40;;;5.40;99.90;;;;;;5032792;28;20222;-87
2021/03/06 03:10:34;;;;;;;5.22;2.95;;;5.40;99.90;;;;;;5028909;28;20362;-86
2021/03/06 03:13:09;;;;;;;5.80;3.33;;;5.40;99.90;;;;;;5030824;28;20223;-88
2021/03/06 03:15:40;;;;;;;3.72;3.28;;;5.40;99.90;;;;;;5035613;28;20688;-84
2021/03/06 03:18:08;;;;;;;3.58;2.97;;;5.40;99.90;;;;;;5036358;28;20222;-87
2021/03/06 03:20:38;;;;;;;4.50;3.15;;;5.30;99.90;;;;;;5037095;28;20222;-85
2021/03/06 03:23:09;;;;;;;5.65;3.33;;;5.30;99.90;;;;;;5034569;28;20238;-86
2021/03/06 03:25:38;;;;;;;3.63;2.35;;;5.30;99.90;;;;;;5036907;28;20212;-85
2021/03/06 03:28:05;;;;;;;3.90;3.25;;;5.30;99.90;;;;;;5033164;28;20195;-86
2021/03/06 03:30:33;;;;;;;3.92;2.40;;;5.30;99.90;;;;;;5023508;28;20231;-85
2021/03/06 03:33:02;;;;;;;5.63;2.83;;;5.30;99.90;;;;;;5017748;28;20200;-86
2021/03/06 03:35:29;;;;;;;2.88;2.53;;;5.20;99.90;;;;;;5029533;28;20249;-87
2021/03/06 03:37:56;;;;;;;3.42;2.70;;;5.30;99.90;;;;;;5017494;28;20228;-86
2021/03/06 03:40:24;;;;;;;3.08;2.53;;;5.60;99.90;;;;;;5019759;28;20570;-85
2021/03/06 03:42:50;;;;;;;3.22;2.72;;;5.80;99.90;;;;;;5019138;28;20222;-87
2021/03/06 03:45:19;;;;;;;2.85;2.60;;;5.30;99.90;;;;;;5033338;28;20215;-86
2021/03/06 03:47:46;;;;;;;2.92;2.60;;;5.30;99.90;;;;;;5016230;28;20255;-86
2021/03/06 03:50:15;;;;;;;5.53;3.63;;;5.30;99.90;;;;;;5034419;28;20236;-87
2021/03/06 03:52:45;;;;;;;3.97;3.10;;;5.20;99.90;;;;;;5023875;28;20567;-86
2021/03/06 03:55:13;;;;;;;4.22;3.10;;;5.20;99.90;;;;;;5018012;28;20231;-87
2021/03/06 03:57:39;;;;;;;3.80;2.25;;;5.20;99.90;;;;;;5044157;28;20234;-87
2021/03/06 04:00:08;;;;;;;3.55;2.65;;;5.20;99.90;;;;;;5034642;28;20184;-87
2021/03/06 04:02:34;;;;;;;3.55;2.50;;;5.20;99.90;;;;;;5036192;28;20223;-90
2021/03/06 04:05:01;;;;;;;6.28;2.80;;;5.20;99.90;;;;;;5025184;28;20224;-88
2021/03/06 04:07:28;;;;;;;3.58;2.30;;;5.20;99.90;;;;;;5034408;28;20230;-88
2021/03/06 04:09:54;;;;;;;5.20;3.35;;;5.20;99.90;;;;;;5038904;28;20646;-85
2021/03/06 04:12:20;;;;;;;4.78;2.80;;;5.10;99.90;;;;;;5036894;28;20222;-85
2021/03/06 04:14:47;;;;;;;5.88;3.28;;;5.00;99.90;;;;;;5038603;28;20215;-85
2021/03/06 04:17:13;;;;;;;4.80;2.95;;;5.10;99.90;;;;;;5034489;28;20218;-85
2021/03/06 04:19:39;;;;;;;3.97;2.42;;;5.10;99.90;;;;;;5030949;28;20196;-86
2021/03/06 04:22:05;;;;;;;4.72;3.10;;;5.00;99.90;;;;;;5034195;28;20226;-88
2021/03/06 04:24:32;;;;;;;2.65;2.45;;;5.10;99.90;;;;;;5030888;28;20215;-87
2021/03/06 04:26:59;;;;;;;4.25;2.45;;;5.10;99.90;;;;;;5026959;28;20220;-87
2021/03/06 04:29:25;;;;;;;3.33;3.00;;;5.00;99.90;;;;;;5024564;28;20234;-88
2021/03/06 04:31:51;;;;;;;3.30;3.00;;;5.00;99.90;;;;;;5036965;28;20208;-88
2021/03/06 04:34:18;;;;;;;4.10;2.72;;;5.00;99.90;;;;;;5035775;28;20867;-86
2021/03/06 04:36:44;;;;;;;3.50;2.30;;;5.00;99.90;;;;;;5034936;28;20223;-86
2021/03/06 04:39:11;;;;;;;3.10;2.63;;;5.00;99.90;;;;;;5017750;28;20224;-86
2021/03/06 04:41:38;;;;;;;4.85;2.70;;;5.10;99.90;;;;;;5023528;28;20199;-86
2021/03/06 04:44:06;;;;;;;3.03;2.63;;;5.00;99.90;;;;;;5035261;28;20204;-89
2021/03/06 04:46:32;;;;;;;4.53;3.42;;;5.00;99.90;;;;;;5035565;28;20281;-88
2021/03/06 04:48:58;;;;;;;3.45;3.15;;;5.00;99.90;;;;;;5033432;28;20223;-88
2021/03/06 04:51:24;;;;;;;3.50;3.03;;;5.00;99.90;;;;;;5025316;28;20717;-87
2021/03/06 04:53:51;;;;;;;4.60;2.60;;;5.00;99.90;;;;;;5037058;28;20196;-88
2021/03/06 04:56:17;;;;;;;3.88;2.72;;;5.00;99.90;;;;;;5047017;28;20245;-88
2021/03/06 04:58:44;;;;;;;5.00;2.65;;;5.00;99.90;;;;;;5011475;28;20651;-88
2021/03/06 05:01:10;;;;;;;7.50;2.70;;;5.00;99.90;;;;;;5009174;28;20216;-88
2021/03/06 05:03:37;;;;;;;2.45;2.25;;;5.00;99.90;;;;;;5034273;28;20215;-89
2021/03/06 05:06:03;;;;;;;3.70;3.10;;;5.10;99.90;;;;;;5018383;28;20231;-88
2021/03/06 05:08:29;;;;;;;3.13;2.42;;;5.10;99.90;;;;;;5021190;28;20656;-89
2021/03/06 05:10:56;;;;;;;3.40;2.47;;;4.90;99.90;;;;;;5016895;28;20223;-88
2021/03/06 05:13:22;;;;;;;3.65;2.30;;;4.90;99.90;;;;;;5036440;28;20218;-87
2021/03/06 05:15:49;;;;;;;3.67;2.65;;;4.90;99.90;;;;;;5043412;28;20242;-88
2021/03/06 05:18:15;;;;;;;3.20;2.50;;;4.90;99.90;;;;;;5035384;28;20224;-88
2021/03/06 05:20:41;;;;;;;2.80;2.47;;;5.00;99.90;;;;;;5033332;28;20277;-87
2021/03/06 05:23:08;;;;;;;4.80;2.75;;;4.90;99.90;;;;;;5019453;28;20196;-88
2021/03/06 05:25:34;;;;;;;5.47;2.97;;;4.90;99.90;;;;;;5021683;28;20285;-87
2021/03/06 05:28:00;;;;;;;4.82;2.90;;;4.90;99.90;;;;;;5033910;28;20208;-88
2021/03/06 05:30:26;;;;;;;3.88;2.70;;;4.80;99.90;;;;;;5028279;28;20196;-87
2021/03/06 05:32:53;;;;;;;3.65;2.70;;;4.80;99.90;;;;;;5035088;28;20183;-87
2021/03/06 05:35:20;;;;;;;5.75;2.95;;;4.80;99.90;;;;;;5015518;28;20222;-87
2021/03/06 05:37:46;;;;;;;4.97;3.10;;;4.80;99.90;;;;;;5033084;28;20216;-86
2021/03/06 05:40:13;;;;;;;3.97;3.58;;;4.80;99.90;;;;;;5034803;28;20200;-87
2021/03/06 05:42:39;;;;;;;6.65;2.63;;;4.80;99.90;;;;;;5030103;28;20191;-87
2021/03/06 05:45:08;;;;;;;4.05;2.90;;;4.90;99.90;;;;;;5032830;28;20246;-85
2021/03/06 05:47:35;;;;;;;4.13;2.55;;;4.80;99.90;;;;;;5023044;28;20702;-86
2021/03/06 05:50:03;;;;;;;8.13;2.92;;;4.80;99.90;;;;;;5012931;28;20235;-85
2021/03/06 05:52:30;;;;;;;4.90;3.50;;;4.80;99.90;;;;;;5023238;28;20192;-85
2021/03/06 05:54:56;;;;;;;3.40;2.95;;;4.80;99.90;;;;;;5032110;28;20698;-85
2021/03/06 05:57:23;;;;;;;4.22;3.47;;;4.80;99.90;;;;;;5028167;28;20204;-85
2021/03/06 05:59:50;;;;;;;4.07;3.10;;;4.80;99.90;;;;;;5031439;28;20216;-84
2021/03/06 06:02:17;;;;;;;5.25;4.35;;;4.80;99.90;;;;;;5030548;28;20215;-85
2021/03/06 06:04:44;;;;;;;4.18;3.78;;;4.70;99.90;;;;;;5026081;28;20224;-85
2021/03/06 06:07:14;;;;;;;9.98;3.90;;;4.70;99.90;;;;;;5029647;28;20210;-87
2021/03/06 06:09:40;;;;;;;6.53;3.92;;;4.70;99.90;;;;;;5030971;28;20231;-86
2021/03/06 06:12:07;;;;;;;4.78;3.58;;;4.70;99.90;;;;;;5034008;28;20350;-87
2021/03/06 06:14:34;;;;;;;4.80;2.95;;;4.70;99.90;;;;;;5033550;28;20505;-87
2021/03/06 06:17:05;;;;;;;4.43;3.22;;;4.70;99.90;;;;;;5024388;28;20207;-87
2021/03/06 06:19:32;;;;;;;4.47;3.97;;;4.70;99.90;;;;;;5019161;28;20227;-89
2021/03/06 06:22:00;;;;;;;3.40;2.90;;;4.70;99.90;;;;;;5022081;28;20199;-88
2021/03/06 06:24:28;;;;;;;3.88;2.30;;;4.70;99.90;;;;;;5019466;28;20220;-88
2021/03/06 06:26:55;;;;;;;4.30;3.10;;;4.70;99.90;;;;;;5022516;28;20732;-87
2021/03/06 06:29:41;;;;;;;5.55;3.50;;;4.70;99.90;;;;;;5034237;28;20245;-88
2021/03/06 06:32:09;;;;;;;3.65;3.00;;;4.70;99.90;;;;;;5016498;28;20184;-87
2021/03/06 06:34:36;;;;;;;3.03;2.70;;;4.70;99.90;;;;;;5032275;28;20217;-88
2021/03/06 06:37:10;;;;;;;4.22;3.17;;;4.70;99.90;;;;;;5033296;28;20216;-87
2021/03/06 06:39:38;;;;;;;5.40;3.55;;;4.70;99.90;;;;;;5027780;28;20562;-87
2021/03/06 06:42:05;;;;;;;4.03;3.53;;;4.70;99.90;;;;;;5028230;28;20226;-86
2021/03/06 06:44:32;;;;;;;4.63;3.20;;;4.70;99.90;;;;;;5019984;28;20238;-87
2021/03/06 06:47:10;;;;;;;4.18;3.35;;;4.70;99.90;;;;;;5024514;28;20222;-87
2021/03/06 06:49:44;;;;;;;3.13;2.72;;;4.70;99.90;;;;;;5036520;28;20227;-87
2021/03/06 06:52:10;;;;;;;6.35;3.40;;;4.70;99.90;;;;;;5035638;28;20210;-87
2021/03/06 06:54:37;;;;;;;3.95;3.45;;;4.70;99.90;;;;;;5033793;28;20251;-87
2021/03/06 06:57:11;;;;;;;4.60;3.17;;;4.70;99.90;;;;;;5026303;28;20270;-86
2021/03/06 06:59:38;;;;;;;3.88;3.03;;;4.70;99.90;;;;;;5025848;28;20219;-83
2021/03/06 07:02:06;;;;;;;3.42;2.35;;;4.70;99.90;;;;;;5026459;28;20216;-83
2021/03/06 07:04:44;;;;;;;4.45;3.35;;;4.60;99.90;;;;;;5034052;28;20265;-83
2021/03/06 07:07:13;;;;;;;4.55;3.50;;;4.60;99.90;;;;;;5034653;28;20215;-83
2021/03/06 07:10:00;;;;;;;4.15;3.40;;;4.60;99.90;;;;;;5033807;28;20200;-83
2021/03/06 07:12:28;;;;;;;4.10;2.78;;;4.60;99.90;;;;;;5033577;28;20238;-87
2021/03/06 07:14:54;;;;;;;4.05;3.65;;;4.70;99.90;;;;;;5034221;28;20227;-83
2021/03/06 07:17:20;;;;;;;4.40;3.42;;;4.80;99.90;;;;;;5032921;28;20211;-82
2021/03/06 07:19:47;;;;;;;3.72;3.25;;;4.80;99.90;;;;;;5034060;28;20200;-83
2021/03/06 07:22:13;;;;;;;5.63;4.10;;;4.90;99.90;;;;;;5031620;28;20196;-82
2021/03/06 07:24:40;;;;;;;6.13;3.80;;;5.00;99.90;;;;;;5033717;28;20694;-83
2021/03/06 07:27:08;;;;;;;7.65;3.92;;;5.10;99.90;;;;;;5032089;28;20214;-84
2021/03/06 07:29:34;;;;;;;6.00;4.05;;;5.40;99.90;;;;;;5025850;28;20239;-83
2021/03/06 07:32:02;;;;;;;4.03;3.63;;;5.50;99.90;;;;;;5033351;28;20242;-82
2021/03/06 07:34:30;;;;;;;4.70;4.30;;;5.60;99.90;;;;;;5032534;28;20669;-82
2021/03/06 07:37:02;;;;;;;4.35;3.78;;;5.80;99.90;;;;;;5031374;28;20744;-82
2021/03/06 07:39:39;;;;;;;4.30;3.90;;;6.00;99.90;;;;;;5033960;28;20191;-83
2021/03/06 07:42:15;;;;;;;4.75;4.13;;;6.10;99.90;;;;;;5019407;28;20854;-83
2021/03/06 07:44:44;;;;;;;7.57;4.85;;;6.20;99.50;;;;;;5028454;28;20803;-83
2021/03/06 07:47:13;;;;;;;3.70;3.35;;;6.20;99.50;;;;;;5033529;28;20833;-83
2021/03/06 07:49:41;;;;;;;7.00;4.85;;;6.10;99.70;;;;;;5021570;28;20224;-83
2021/03/06 07:52:09;;;;;;;7.70;4.93;;;6.20;99.80;;;;;;5028827;28;20226;-83
2021/03/06 07:54:37;;;;;;;6.38;3.70;;;6.30;99.70;;;;;;5023831;28;20211;-81
2021/03/06 07:57:03;;;;;;;5.82;3.88;;;6.30;99.60;;;;;;5026750;28;20215;-86
2021/03/06 07:59:47;;;;;;;4.35;3.95;;;6.40;99.40;;;;;;5027818;28;20215;-85
2021/03/06 08:02:34;;;;;;;5.57;3.72;;;6.50;99.20;;;;;;5028570;28;20219;-86
2021/03/06 08:05:01;;;;;;;6.93;4.20;;;6.60;99.00;;;;;;5025276;28;20219;-83
2021/03/06 08:07:44;;;;;;;4.25;3.83;;;6.60;99.10;;;;;;5022345;28;20222;-84
2021/03/06 08:10:11;;;;;;;5.57;4.22;;;6.60;98.90;;;;;;5027195;28;20301;-84
2021/03/06 08:12:39;;;;;;;7.15;4.90;;;6.60;99.10;;;;;;5012675;28;20219;-79
2021/03/06 08:15:31;;;;;;;4.57;4.18;;;6.60;99.20;;;;;;5024950;28;20203;-80
2021/03/06 08:17:59;;;;;;;4.60;3.97;;;6.60;99.50;;;;;;5024162;28;20197;-81
2021/03/06 08:20:28;;;;;;;5.18;4.70;;;6.70;99.40;;;;;;5019514;28;20211;-79
2021/03/06 08:23:22;;;;;;;5.43;4.22;;;6.70;99.30;;;;;;5023007;28;20215;-79
2021/03/06 08:26:09;;;;;;;6.60;4.80;;;6.80;99.30;;;;;;5024035;28;20288;-79
2021/03/06 08:28:36;;;;;;;6.72;5.03;;;6.80;99.10;;;;;;5031675;28;20199;-78
2021/03/06 08:31:36;;;;;;;7.88;4.57;;;6.90;98.90;;;;;;5028952;28;20219;-82
2021/03/06 08:34:26;;;;;;;8.30;4.70;;;6.90;99.10;;;;;;5028371;28;20302;-83
2021/03/06 08:36:52;;;;;;;4.78;4.35;;;7.00;99.00;;;;;;5033470;28;20203;-84
2021/03/06 08:39:19;;;;;;;5.90;4.35;;;7.00;98.50;;;;;;5023020;28;20684;-83
2021/03/06 08:41:45;;;;;;;5.22;4.72;;;7.10;98.60;;;;;;5012518;28;20224;-83
2021/03/06 08:44:12;;;;;;;5.95;5.30;;;7.20;98.40;;;;;;5012643;28;20212;-83
2021/03/06 08:46:40;;;;;;;5.30;4.03;;;7.30;98.10;;;;;;5029699;28;20277;-83
2021/03/06 08:49:08;;;;;;;7.75;5.63;;;7.40;98.00;;;;;;5025178;28;20199;-83
2021/03/06 08:51:34;;;;;;;8.55;5.30;;;7.40;97.80;;;;;;5032379;28;20236;-84
2021/03/06 08:54:00;;;;;;;5.57;4.75;;;7.50;97.30;;;;;;5032887;28;20191;-85
2021/03/06 08:56:37;;;;;;;6.05;5.10;;;7.60;97.30;;;;;;5027959;28;20212;-84
2021/03/06 08:59:04;;;;;;;6.38;5.70;;;7.50;97.10;;;;;;5032269;28;20261;-84
2021/03/06 09:01:33;;;;;;;5.78;4.55;;;7.50;97.00;;;;;;5031218;28;20232;-85
2021/03/06 09:03:59;;;;;;;5.47;4.35;;;7.50;97.20;;;;;;5032579;28;20206;-87
2021/03/06 09:06:34;;;;;;;6.15;5.22;;;7.40;97.50;;;;;;5028273;28;20691;-85
2021/03/06 09:09:01;;;;;;;6.78;5.00;;;7.40;97.20;;;;;;5014174;28;20269;-84
2021/03/06 09:11:28;;;;;;;5.65;3.97;;;7.50;97.50;;;;;;5013063;28;20220;-85
2021/03/06 09:13:55;;;;;;;5.43;4.63;;;7.40;97.70;;;;;;5026187;28;20191;-84
2021/03/06 09:16:21;;;;;;;6.32;4.55;;;7.40;98.10;;;;;;5032317;28;20627;-83
2021/03/06 09:18:48;;;;;;;5.00;3.95;;;7.40;98.10;;;;;;5026620;28;20203;-85
2021/03/06 09:21:19;;;;;;;6.05;4.15;;;7.50;97.80;;;;;;5031679;28;20556;-82
2021/03/06 09:23:47;;;;;;;7.43;4.55;;;7.50;97.80;;;;;;5032072;28;20306;-84
2021/03/06 09:26:16;;;;;;;5.10;3.83;;;7.50;98.00;;;;;;5020829;28;20714;-84
2021/03/06 09:28:43;;;;;;;5.97;4.57;;;7.50;97.90;;;;;;5028633;28;20203;-83
2021/03/06 09:31:13;;;;;;;7.90;4.53;;;7.50;98.00;;;;;;5030435;28;20219;-83
2021/03/06 09:33:40;;;;;;;8.73;4.60;;;7.50;98.00;;;;;;5031387;28;20215;-84
2021/03/06 09:36:09;;;;;;;8.43;4.00;;;7.40;98.20;;;;;;5023420;28;20275;-84
2021/03/06 09:38:44;;;;;;;4.85;3.70;;;7.40;97.90;;;;;;5024233;28;20702;-85
2021/03/06 09:41:11;;;;;;;5.43;4.13;;;7.40;98.00;;;;;;5031961;28;20314;-85
2021/03/06 09:43:39;;;;;;;8.75;4.10;;;7.40;98.40;;;;;;5032251;28;20216;-84
2021/03/06 09:46:13;;;;;;;6.43;3.92;;;7.30;98.50;;;;;;5030413;28;20239;-83
2021/03/06 09:48:48;;;;;;;4.60;3.00;;;7.30;98.90;;;;;;5010511;28;20220;-84
2021/03/06 09:51:15;;;;;;;6.18;3.47;;;7.40;99.00;;;;;;5021995;28;20234;-84
2021/03/06 09:53:41;;;;;;;5.20;3.25;;;7.40;98.50;;;;;;5030579;28;20195;-83
2021/03/06 09:56:10;;;;;;;6.25;3.10;;;7.40;99.00;;;;;;5011623;28;20223;-87
2021/03/06 09:58:38;;;;;;;6.47;4.22;;;7.40;99.10;;;;;;5024016;28;20268;-84
2021/03/06 10:01:16;;;;;;;5.57;3.40;;;7.40;99.20;;;;;;5031087;28;20211;-84
2021/03/06 10:03:43;;;;;;;4.35;3.03;;;7.40;99.20;;;;;;5029304;28;20223;-84
2021/03/06 10:06:10;;;;;;;3.42;2.42;;;7.40;99.00;;;;;;5018778;28;20217;-84
2021/03/06 10:08:44;;;;;;;3.67;2.95;;;7.40;99.10;;;;;;5030875;28;20262;-85
2021/03/06 10:11:12;;;;;;;5.55;3.45;;;7.50;99.20;;;;;;5030485;28;20218;-84
2021/03/06 10:13:39;;;;;;;3.45;3.15;;;7.50;99.30;;;;;;5032081;28;20251;-84
2021/03/06 10:16:05;;;;;;;5.45;2.85;;;7.40;98.80;;;;;;5030972;28;20194;-84
2021/03/06 10:18:37;;;;;;;3.28;2.63;;;7.40;98.60;;;;;;5030952;28;20326;-84
2021/03/06 10:21:14;;;;;;;3.72;2.50;;;7.40;98.50;;;;;;5017091;28;20211;-83
2021/03/06 10:23:41;;;;;;;5.50;3.38;;;7.40;98.70;;;;;;5020162;28;20200;-85
2021/03/06 10:26:29;;;;;;;5.93;2.80;;;7.50;98.70;;;;;;5012375;28;20224;-85
2021/03/06 10:28:57;;;;;;;8.40;2.88;;;7.50;98.70;;;;;;5009005;28;20220;-85
2021/03/06 10:31:35;;;;;;;4.30;2.50;;;7.50;98.80;;;;;;5031424;28;20603;-85
2021/03/06 10:34:21;;;;;;;5.65;2.45;;;7.50;98.80;;;;;;5021204;28;20204;-85
2021/03/06 10:37:12;;;;;;;6.18;2.13;;;7.50;98.00;;;;;;5016371;28;20191;-84
2021/03/06 10:39:56;;;;;;;2.97;2.50;;;7.40;97.30;;;;;;5010714;28;20234;-84
2021/03/06 10:42:24;;;;;;;5.15;2.10;;;7.40;98.50;;;;;;5025492;28;20594;-85
2021/03/06 10:44:50;;;;;;;3.60;1.95;;;7.50;98.40;;;;;;5030261;28;20230;-83
2021/03/06 10:47:16;;;;;;;2.83;2.35;;;7.50;98.00;;;;;;5030475;28;20234;-84
2021/03/06 10:49:44;;;;;;;2.17;1.92;;;7.50;98.20;;;;;;5030064;28;20270;-83
2021/03/06 10:52:24;;;;;;;5.60;2.05;;;7.50;98.40;;;;;;5011125;28;20203;-84
2021/03/06 10:54:53;;;;;;;2.50;2.00;;;7.50;98.60;;;;;;5020657;28;20211;-88
2021/03/06 10:57:19;;;;;;;3.38;1.83;;;7.40;99.10;;;;;;5030955;28;20796;-81
2021/03/06 10:59:45;;;;;;;3.45;2.00;;;7.30;99.20;;;;;;5024159;28;20223;-81
2021/03/06 11:02:27;;;;;;;4.10;3.80;;;7.30;99.50;;;;;;5021541;28;20203;-80
2021/03/06 11:04:53;;;;;;;2.90;2.05;;;7.30;99.60;;;;;;5028956;28;20195;-81
2021/03/06 11:07:27;;;;;;;1.90;1.58;;;7.40;98.40;;;;;;5029557;28;20598;-79
2021/03/06 11:09:58;;;;;;;2.17;1.52;;;7.30;96.90;;;;;;5028964;28;20272;-79
2021/03/06 11:12:28;;;;;;;2.45;2.10;;;7.30;97.10;;;;;;5029092;28;20277;-79
2021/03/06 11:15:08;;;;;;;1.73;1.45;;;7.30;98.70;;;;;;5029121;28;20210;-80
2021/03/06 11:17:35;;;;;;;1.75;1.38;;;7.30;96.70;;;;;;5014861;28;20204;-82
2021/03/06 11:20:01;;;;;;;2.78;1.90;;;7.30;97.30;;;;;;5014053;28;20219;-79
2021/03/06 11:22:28;;;;;;;2.05;1.65;;;7.30;98.10;;;;;;5028219;28;20658;-81
2021/03/06 11:24:54;;;;;;;2.95;1.48;;;7.30;98.10;;;;;;5029608;28;20269;-80
2021/03/06 11:27:21;;;;;;;2.00;1.67;;;7.30;98.10;;;;;;5029433;28;20569;-81
2021/03/06 11:29:47;;;;;;;3.15;1.38;;;7.30;97.50;;;;;;5029198;28;20196;-81
2021/03/06 11:32:13;;;;;;;2.15;1.45;;;7.20;96.90;;;;;;5013664;28;20215;-80
2021/03/06 11:34:40;;;;;;;3.85;1.85;;;7.30;98.30;;;;;;5029164;28;20682;-80
2021/03/06 11:37:06;;;;;;;1.70;1.40;;;7.20;99.60;;;;;;5032778;28;20230;-81
2021/03/06 11:39:32;;;;;;;2.13;1.60;;;7.30;99.10;;;;;;5032868;28;20231;-80
2021/03/06 11:41:58;;;;;;;2.45;1.30;;;7.30;99.20;;;;;;5031641;28;20257;-81
2021/03/06 11:44:25;;;;;;;2.35;1.60;;;7.30;99.00;;;;;;5033268;28;20574;-80
2021/03/06 11:46:52;;;;;;;2.35;1.67;;;7.40;99.10;;;;;;5027515;28;20235;-81
2021/03/06 11:49:18;;;;;;;2.40;1.70;;;7.40;98.60;;;;;;5018662;28;20277;-81
2021/03/06 11:51:44;;;;;;;3.58;1.85;;;7.40;98.70;;;;;;5033024;28;20242;-80
2021/03/06 11:54:10;;;;;;;3.28;2.22;;;7.40;98.70;;;;;;5026533;28;20212;-81
2021/03/06 11:56:36;;;;;;;2.50;1.75;;;7.20;97.90;;;;;;5032828;28;20223;-81
2021/03/06 11:59:03;;;;;;;3.95;2.20;;;7.20;99.20;;;;;;5030951;28;20188;-81
2021/03/06 12:01:30;;;;;;;2.25;1.60;;;7.20;99.60;;;;;;5028312;28;20290;-80
2021/03/06 12:03:57;;;;;;;2.05;1.60;;;7.20;99.80;;;;;;5024698;28;20199;-81
2021/03/06 12:06:23;;;;;;;2.97;1.63;;;7.10;99.90;;;;;;5032485;28;20231;-81
2021/03/06 12:08:51;;;;;;;2.70;1.65;;;7.10;99.90;;;;;;5033620;28;20211;-81
2021/03/06 12:11:18;;;;;;;2.00;1.60;;;7.10;99.90;;;;;;5026797;28;20216;-81
2021/03/06 12:13:44;;;;;;;2.90;1.23;;;7.10;99.90;;;;;;5025490;28;20717;-81
2021/03/06 12:16:10;;;;;;;6.05;1.63;;;7.10;99.70;;;;;;5032706;28;20203;-81
2021/03/06 12:18:37;;;;;;;3.90;1.98;;;7.10;99.90;;;;;;5030546;28;20216;-81
2021/03/06 12:21:04;;;;;;;2.22;1.65;;;7.00;99.90;;;;;;5027979;28;20204;-81
2021/03/06 12:23:30;;;;;;;3.80;1.60;;;7.00;99.70;;;;;;5031967;28;20195;-81
2021/03/06 12:25:56;;;;;;;3.60;1.55;;;7.00;99.90;;;;;;5031971;28;20698;-80
2021/03/06 12:28:22;;;;;;;5.10;1.42;;;7.00;99.90;;;;;;5032670;28;20195;-81
2021/03/06 12:30:48;;;;;;;4.07;2.13;;;7.00;99.90;;;;;;5024681;28;20199;-81
2021/03/06 12:33:15;;;;;;;1.92;1.20;;;7.00;99.90;;;;;;5029877;28;20723;-81
2021/03/06 12:35:42;;;;;;;6.38;1.90;;;7.00;99.90;;;;;;5032580;28;20235;-81
2021/03/06 12:38:08;;;;;;;2.95;2.15;;;7.00;99.90;;;;;;5017635;28;20228;-81
2021/03/06 12:40:34;;;;;;;2.50;1.60;;;7.00;99.20;;;;;;5023004;28;20219;-82
2021/03/06 12:43:01;;;;;;;2.30;1.98;;;7.00;99.20;;;;;;5028810;28;20188;-81
2021/03/06 12:45:27;;;;;;;2.88;1.80;;;7.00;99.30;;;;;;5028422;28;20669;-81
2021/03/06 12:47:53;;;;;;;2.45;1.50;;;6.90;97.80;;;;;;5026228;28;20224;-81
2021/03/06 12:50:19;;;;;;;2.58;1.50;;;6.80;97.30;;;;;;5021408;28;20282;-80
2021/03/06 12:52:46;;;;;;;3.83;1.40;;;6.80;97.70;;;;;;5009057;28;20212;-81
2021/03/06 12:55:13;;;;;;;3.15;1.30;;;6.80;99.30;;;;;;5010642;28;20215;-81
2021/03/06 12:57:39;;;;;;;1.90;1.35;;;6.90;99.70;;;;;;5009294;28;20204;-81
2021/03/06 13:00:07;;;;;;;2.83;1.98;;;6.90;99.60;;;;;;4993072;28;20217;-80
2021/03/06 13:02:33;;;;;;;3.40;1.70;;;7.00;99.80;;;;;;5011708;28;20200;-81
2021/03/06 13:04:59;;;;;;;1.65;1.15;;;7.00;99.80;;;;;;5010763;28;20244;-80
2021/03/06 13:07:26;;;;;;;1.75;1.30;;;7.00;99.50;;;;;;5010926;28;20634;-81